KRP078 LROP-LRTR
Flight info
| Callsign | KRP078 |
|---|---|
| Flight time | 0h 42m |
| Altitude | 30000 |
| Route | SOKRU DCT OXDOC DCT NEKUL |
| Aircraft | A319/M-SDE3FGHIRWY/LB1 |
Departure
| Time | 2026-04-22 10:07 |
|---|---|
| Airport | Bucharest Henri Coandă International Airport (LROP) |
Arrival
| Time | 2026-04-22 10:49 |
|---|---|
| Airport | Timișoara Traian Vuia International Airport (LRTR) |
| Time | Latitude | Longitude | Altitude | Speed | Heading |
|---|---|---|---|---|---|
| 2026-04-22 09:46 | 44.57134 | 26.08060 | 323 ft | 0 kts | 174° |
| 2026-04-22 09:59 | 44.57145 | 26.08058 | 321 ft | 4 kts | 171° |
| 2026-04-22 09:59 | 44.57171 | 26.08049 | 321 ft | 4 kts | 155° |
| 2026-04-22 10:00 | 44.57192 | 26.08029 | 320 ft | 4 kts | 121° |
| 2026-04-22 10:00 | 44.57197 | 26.08008 | 320 ft | 0 kts | 84° |
| 2026-04-22 10:04 | 44.57199 | 26.08030 | 320 ft | 6 kts | 84° |
| 2026-04-22 10:04 | 44.57206 | 26.08124 | 323 ft | 12 kts | 84° |
| 2026-04-22 10:04 | 44.57214 | 26.08242 | 323 ft | 12 kts | 84° |
| 2026-04-22 10:04 | 44.57222 | 26.08345 | 323 ft | 11 kts | 84° |
| 2026-04-22 10:05 | 44.57231 | 26.08457 | 323 ft | 13 kts | 81° |
| 2026-04-22 10:05 | 44.57305 | 26.08495 | 323 ft | 13 kts | 353° |
| 2026-04-22 10:05 | 44.57404 | 26.08480 | 322 ft | 15 kts | 354° |
| 2026-04-22 10:05 | 44.57517 | 26.08464 | 323 ft | 17 kts | 354° |
| 2026-04-22 10:06 | 44.57629 | 26.08447 | 323 ft | 9 kts | 353° |
| 2026-04-22 10:06 | 44.57666 | 26.08482 | 323 ft | 6 kts | 74° |
| 2026-04-22 10:06 | 44.57668 | 26.08515 | 324 ft | 3 kts | 85° |
| 2026-04-22 10:06 | 44.57692 | 26.08836 | 322 ft | 72 kts | 84° |
| 2026-04-22 10:07 | 44.57771 | 26.09865 | 323 ft | 137 kts | 84° |
| 2026-04-22 10:07 | 44.57884 | 26.11337 | 729 ft | 151 kts | 84° |
| 2026-04-22 10:07 | 44.57991 | 26.12792 | 1468 ft | 151 kts | 83° |
| 2026-04-22 10:07 | 44.58108 | 26.14344 | 1944 ft | 170 kts | 82° |
| 2026-04-22 10:08 | 44.58249 | 26.16095 | 2415 ft | 191 kts | 82° |
| 2026-04-22 10:08 | 44.58413 | 26.18050 | 2835 ft | 214 kts | 80° |
| 2026-04-22 10:08 | 44.58799 | 26.20213 | 3207 ft | 243 kts | 68° |
| 2026-04-22 10:08 | 44.59855 | 26.22097 | 3970 ft | 254 kts | 32° |
| 2026-04-22 10:09 | 44.61557 | 26.22776 | 4898 ft | 262 kts | 358° |
| 2026-04-22 10:09 | 44.63292 | 26.22035 | 5862 ft | 266 kts | 327° |
| 2026-04-22 10:09 | 44.64495 | 26.20083 | 6856 ft | 270 kts | 296° |
| 2026-04-22 10:09 | 44.65167 | 26.17638 | 7977 ft | 268 kts | 291° |
| 2026-04-22 10:10 | 44.65807 | 26.15150 | 8917 ft | 273 kts | 290° |
| 2026-04-22 10:10 | 44.66454 | 26.12617 | 9907 ft | 277 kts | 291° |
| 2026-04-22 10:10 | 44.67119 | 26.10024 | 10544 ft | 293 kts | 290° |
| 2026-04-22 10:10 | 44.67840 | 26.07223 | 10869 ft | 316 kts | 290° |
| 2026-04-22 10:11 | 44.68607 | 26.04250 | 11455 ft | 328 kts | 290° |
| 2026-04-22 10:11 | 44.69390 | 26.01220 | 12274 ft | 332 kts | 290° |
| 2026-04-22 10:11 | 44.70182 | 25.98154 | 13130 ft | 335 kts | 290° |
| 2026-04-22 10:11 | 44.70980 | 25.95057 | 13979 ft | 338 kts | 290° |
| 2026-04-22 10:12 | 44.71785 | 25.91942 | 14746 ft | 341 kts | 290° |
| 2026-04-22 10:12 | 44.72596 | 25.88793 | 15513 ft | 343 kts | 289° |
| 2026-04-22 10:12 | 44.73410 | 25.85626 | 16292 ft | 346 kts | 289° |
| 2026-04-22 10:12 | 44.74233 | 25.82426 | 17048 ft | 349 kts | 290° |
| 2026-04-22 10:13 | 44.75063 | 25.79198 | 17781 ft | 352 kts | 289° |
| 2026-04-22 10:13 | 44.75899 | 25.75946 | 18482 ft | 355 kts | 289° |
| 2026-04-22 10:13 | 44.76742 | 25.72659 | 19112 ft | 358 kts | 289° |
| 2026-04-22 10:13 | 44.77589 | 25.69354 | 19747 ft | 361 kts | 289° |
| 2026-04-22 10:14 | 44.78439 | 25.66011 | 20376 ft | 364 kts | 289° |
| 2026-04-22 10:14 | 44.79294 | 25.62639 | 21014 ft | 367 kts | 289° |
| 2026-04-22 10:14 | 44.80155 | 25.59242 | 21631 ft | 370 kts | 289° |
| 2026-04-22 10:14 | 44.81023 | 25.55819 | 22235 ft | 373 kts | 289° |
| 2026-04-22 10:15 | 44.81895 | 25.52372 | 22822 ft | 376 kts | 289° |
| 2026-04-22 10:15 | 44.82763 | 25.48935 | 23373 ft | 379 kts | 289° |
| 2026-04-22 10:15 | 44.83650 | 25.45423 | 23867 ft | 382 kts | 289° |
| 2026-04-22 10:15 | 44.84555 | 25.41840 | 24333 ft | 385 kts | 289° |
| 2026-04-22 10:16 | 44.85443 | 25.38317 | 24792 ft | 387 kts | 289° |
| 2026-04-22 10:16 | 44.86349 | 25.34738 | 25250 ft | 389 kts | 289° |
| 2026-04-22 10:16 | 44.87258 | 25.31133 | 25708 ft | 391 kts | 289° |
| 2026-04-22 10:16 | 44.88171 | 25.27502 | 26162 ft | 394 kts | 289° |
| 2026-04-22 10:17 | 44.89084 | 25.23847 | 26610 ft | 396 kts | 289° |
| 2026-04-22 10:17 | 44.89979 | 25.20167 | 27040 ft | 398 kts | 287° |
| 2026-04-22 10:17 | 44.90830 | 25.16431 | 27484 ft | 401 kts | 288° |
| 2026-04-22 10:17 | 44.91733 | 25.12698 | 27902 ft | 404 kts | 289° |
| 2026-04-22 10:18 | 44.92672 | 25.08962 | 28056 ft | 405 kts | 289° |
| 2026-04-22 10:18 | 44.93629 | 25.05225 | 28069 ft | 404 kts | 289° |
| 2026-04-22 10:18 | 44.95531 | 24.97760 | 28063 ft | 404 kts | 289° |
| 2026-04-22 10:19 | 44.97393 | 24.90282 | 28068 ft | 404 kts | 289° |
| 2026-04-22 10:19 | 44.99234 | 24.82778 | 28063 ft | 404 kts | 289° |
| 2026-04-22 10:20 | 45.00156 | 24.79015 | 28359 ft | 407 kts | 289° |
| 2026-04-22 10:20 | 45.01089 | 24.75215 | 28793 ft | 410 kts | 289° |
| 2026-04-22 10:20 | 45.02025 | 24.71406 | 29193 ft | 412 kts | 289° |
| 2026-04-22 10:20 | 45.02964 | 24.67573 | 29591 ft | 414 kts | 289° |
| 2026-04-22 10:21 | 45.03905 | 24.63708 | 29972 ft | 417 kts | 288° |
| 2026-04-22 10:21 | 45.04842 | 24.59849 | 30058 ft | 411 kts | 288° |
| 2026-04-22 10:21 | 45.06677 | 24.52293 | 30061 ft | 403 kts | 288° |
| 2026-04-22 10:22 | 45.08489 | 24.44798 | 30059 ft | 403 kts | 289° |
| 2026-04-22 10:22 | 45.10306 | 24.37279 | 30059 ft | 404 kts | 288° |
| 2026-04-22 10:23 | 45.12121 | 24.29762 | 30059 ft | 403 kts | 289° |
| 2026-04-22 10:23 | 45.13931 | 24.22246 | 30056 ft | 403 kts | 288° |
| 2026-04-22 10:24 | 45.15717 | 24.14769 | 30054 ft | 403 kts | 288° |
| 2026-04-22 10:24 | 45.17508 | 24.07238 | 30048 ft | 404 kts | 288° |
| 2026-04-22 10:25 | 45.19313 | 23.99638 | 30039 ft | 404 kts | 288° |
| 2026-04-22 10:25 | 45.21085 | 23.92140 | 30039 ft | 404 kts | 288° |
| 2026-04-22 10:26 | 45.22873 | 23.84570 | 30040 ft | 404 kts | 288° |
| 2026-04-22 10:26 | 45.24655 | 23.77003 | 30039 ft | 404 kts | 288° |
| 2026-04-22 10:27 | 45.26428 | 23.69426 | 30026 ft | 405 kts | 288° |
| 2026-04-22 10:27 | 45.28209 | 23.61824 | 30032 ft | 406 kts | 288° |
| 2026-04-22 10:28 | 45.29682 | 23.55498 | 30024 ft | 406 kts | 288° |
| 2026-04-22 10:28 | 45.31449 | 23.47872 | 30037 ft | 406 kts | 288° |
| 2026-04-22 10:29 | 45.33215 | 23.40233 | 30045 ft | 407 kts | 288° |
| 2026-04-22 10:29 | 45.34972 | 23.32606 | 30046 ft | 407 kts | 288° |
| 2026-04-22 10:30 | 45.36726 | 23.24956 | 30044 ft | 406 kts | 288° |
| 2026-04-22 10:30 | 45.37603 | 23.21131 | 29832 ft | 409 kts | 288° |
| 2026-04-22 10:30 | 45.38482 | 23.17288 | 29099 ft | 409 kts | 288° |
| 2026-04-22 10:31 | 45.39360 | 23.13437 | 28388 ft | 408 kts | 288° |
| 2026-04-22 10:31 | 45.40230 | 23.09611 | 27691 ft | 406 kts | 288° |
| 2026-04-22 10:31 | 45.41095 | 23.05800 | 27016 ft | 403 kts | 288° |
| 2026-04-22 10:31 | 45.41953 | 23.02018 | 26360 ft | 400 kts | 288° |
| 2026-04-22 10:32 | 45.42804 | 22.98268 | 25723 ft | 397 kts | 288° |
| 2026-04-22 10:32 | 45.43647 | 22.94541 | 25089 ft | 394 kts | 288° |
| 2026-04-22 10:32 | 45.44486 | 22.90827 | 24422 ft | 392 kts | 288° |
| 2026-04-22 10:32 | 45.45317 | 22.87139 | 23774 ft | 391 kts | 288° |
| 2026-04-22 10:33 | 45.46146 | 22.83454 | 23021 ft | 390 kts | 288° |
| 2026-04-22 10:33 | 45.46974 | 22.79782 | 22272 ft | 390 kts | 288° |
| 2026-04-22 10:33 | 45.47801 | 22.76105 | 21537 ft | 389 kts | 288° |
| 2026-04-22 10:33 | 45.48623 | 22.72439 | 20821 ft | 389 kts | 288° |
| 2026-04-22 10:34 | 45.49443 | 22.68764 | 20116 ft | 389 kts | 288° |
| 2026-04-22 10:34 | 45.50259 | 22.65087 | 19431 ft | 389 kts | 288° |
| 2026-04-22 10:34 | 45.51151 | 22.61459 | 18769 ft | 388 kts | 294° |
| 2026-04-22 10:34 | 45.52395 | 22.58098 | 18075 ft | 379 kts | 303° |
| 2026-04-22 10:35 | 45.53929 | 22.55172 | 17340 ft | 370 kts | 311° |
| 2026-04-22 10:35 | 45.55642 | 22.52488 | 16619 ft | 361 kts | 312° |
| 2026-04-22 10:35 | 45.57316 | 22.49863 | 16214 ft | 355 kts | 312° |
| 2026-04-22 10:35 | 45.58956 | 22.47285 | 15847 ft | 348 kts | 312° |
| 2026-04-22 10:36 | 45.60575 | 22.44741 | 15418 ft | 345 kts | 312° |
| 2026-04-22 10:36 | 45.62167 | 22.42184 | 14913 ft | 344 kts | 309° |
| 2026-04-22 10:36 | 45.63316 | 22.39212 | 14408 ft | 344 kts | 290° |
| 2026-04-22 10:36 | 45.63767 | 22.35867 | 13919 ft | 343 kts | 278° |
| 2026-04-22 10:37 | 45.64030 | 22.32488 | 13367 ft | 341 kts | 278° |
| 2026-04-22 10:37 | 45.64523 | 22.25784 | 12286 ft | 338 kts | 277° |
| 2026-04-22 10:37 | 45.64764 | 22.22447 | 11761 ft | 337 kts | 277° |
| 2026-04-22 10:38 | 45.65002 | 22.19125 | 11240 ft | 333 kts | 277° |
| 2026-04-22 10:38 | 45.65238 | 22.15891 | 10720 ft | 322 kts | 278° |
| 2026-04-22 10:38 | 45.65469 | 22.12764 | 10220 ft | 311 kts | 278° |
| 2026-04-22 10:38 | 45.65690 | 22.09753 | 9905 ft | 297 kts | 277° |
| 2026-04-22 10:39 | 45.65897 | 22.06897 | 9633 ft | 282 kts | 278° |
| 2026-04-22 10:39 | 45.66096 | 22.04140 | 9363 ft | 277 kts | 277° |
| 2026-04-22 10:39 | 45.66290 | 22.01416 | 8996 ft | 274 kts | 278° |
| 2026-04-22 10:39 | 45.66483 | 21.98708 | 8621 ft | 273 kts | 278° |
| 2026-04-22 10:40 | 45.66672 | 21.96049 | 8241 ft | 265 kts | 279° |
| 2026-04-22 10:40 | 45.66854 | 21.93474 | 7878 ft | 255 kts | 279° |
| 2026-04-22 10:40 | 45.67031 | 21.91002 | 7528 ft | 247 kts | 278° |
| 2026-04-22 10:40 | 45.67214 | 21.88560 | 7204 ft | 246 kts | 281° |
| 2026-04-22 10:41 | 45.67641 | 21.86242 | 6944 ft | 238 kts | 294° |
| 2026-04-22 10:41 | 45.68218 | 21.84033 | 6693 ft | 236 kts | 294° |
| 2026-04-22 10:41 | 45.68782 | 21.81845 | 6448 ft | 234 kts | 294° |
| 2026-04-22 10:41 | 45.69343 | 21.79660 | 6183 ft | 233 kts | 294° |
| 2026-04-22 10:42 | 45.69900 | 21.77488 | 5910 ft | 232 kts | 294° |
| 2026-04-22 10:42 | 45.70454 | 21.75322 | 5653 ft | 231 kts | 293° |
| 2026-04-22 10:42 | 45.71007 | 21.73158 | 5392 ft | 231 kts | 293° |
| 2026-04-22 10:42 | 45.71556 | 21.71005 | 5136 ft | 230 kts | 293° |
| 2026-04-22 10:43 | 45.72101 | 21.68866 | 4881 ft | 228 kts | 293° |
| 2026-04-22 10:43 | 45.72646 | 21.66731 | 4603 ft | 228 kts | 293° |
| 2026-04-22 10:43 | 45.73188 | 21.64608 | 4341 ft | 226 kts | 295° |
| 2026-04-22 10:43 | 45.73725 | 21.62504 | 4078 ft | 223 kts | 294° |
| 2026-04-22 10:44 | 45.74250 | 21.60442 | 3812 ft | 217 kts | 295° |
| 2026-04-22 10:44 | 45.74755 | 21.58456 | 3551 ft | 207 kts | 295° |
| 2026-04-22 10:44 | 45.75236 | 21.56557 | 3320 ft | 198 kts | 295° |
| 2026-04-22 10:44 | 45.75693 | 21.54746 | 3145 ft | 190 kts | 295° |
| 2026-04-22 10:45 | 45.76127 | 21.53013 | 2901 ft | 186 kts | 296° |
| 2026-04-22 10:45 | 45.76560 | 21.51297 | 2660 ft | 180 kts | 296° |
| 2026-04-22 10:45 | 45.76976 | 21.49652 | 2420 ft | 171 kts | 296° |
| 2026-04-22 10:45 | 45.77369 | 21.48097 | 2194 ft | 162 kts | 297° |
| 2026-04-22 10:46 | 45.77747 | 21.46605 | 1979 ft | 158 kts | 297° |
| 2026-04-22 10:46 | 45.78115 | 21.45150 | 1771 ft | 148 kts | 296° |
| 2026-04-22 10:46 | 45.78446 | 21.43837 | 1565 ft | 134 kts | 296° |
| 2026-04-22 10:46 | 45.78755 | 21.42615 | 1387 ft | 127 kts | 298° |
| 2026-04-22 10:47 | 45.79056 | 21.41441 | 1211 ft | 125 kts | 299° |
| 2026-04-22 10:47 | 45.79371 | 21.40224 | 1038 ft | 135 kts | 295° |
| 2026-04-22 10:47 | 45.79671 | 21.38967 | 862 ft | 132 kts | 293° |
| 2026-04-22 10:47 | 45.79963 | 21.37732 | 664 ft | 127 kts | 294° |
| 2026-04-22 10:48 | 45.80280 | 21.36553 | 477 ft | 127 kts | 295° |
| 2026-04-22 10:48 | 45.80578 | 21.35382 | 350 ft | 120 kts | 299° |
| 2026-04-22 10:48 | 45.80817 | 21.34449 | 338 ft | 77 kts | 290° |
| 2026-04-22 10:48 | 45.80979 | 21.33807 | 346 ft | 63 kts | 290° |
| 2026-04-22 10:49 | 45.81118 | 21.33253 | 346 ft | 56 kts | 289° |
| 2026-04-22 10:49 | 45.81242 | 21.32757 | 343 ft | 50 kts | 290° |
| 2026-04-22 10:49 | 45.81346 | 21.32342 | 352 ft | 28 kts | 289° |
| 2026-04-22 10:49 | 45.81367 | 21.32156 | 345 ft | 12 kts | 222° |
| 2026-04-22 10:50 | 45.81282 | 21.32109 | 342 ft | 13 kts | 199° |
| 2026-04-22 10:50 | 45.81222 | 21.32078 | 342 ft | 7 kts | 199° |
| 2026-04-22 10:50 | 45.81170 | 21.32053 | 342 ft | 8 kts | 199° |
| 2026-04-22 10:50 | 45.81131 | 21.32088 | 342 ft | 8 kts | 116° |
| 2026-04-22 10:51 | 45.81103 | 21.32094 | 343 ft | 2 kts | 210° |
| 2026-04-22 10:51 | 45.81088 | 21.32086 | 345 ft | 3 kts | 200° |
| 2026-04-22 10:51 | 45.81079 | 21.32081 | 342 ft | 0 kts | 200° |